createdAt,value
2022-08-17T00:00:58.409Z,816.35
2022-08-17T00:01:58.470Z,816.35
2022-08-17T00:02:58.342Z,816.36
2022-08-17T00:03:58.381Z,816.39
2022-08-17T00:04:58.382Z,816.38
2022-08-17T00:05:58.398Z,816.39
2022-08-17T00:06:58.414Z,816.34
2022-08-17T00:07:58.440Z,816.34
2022-08-17T00:08:58.451Z,816.35
2022-08-17T00:09:58.476Z,816.37
2022-08-17T00:10:58.484Z,816.37
2022-08-17T00:12:41.879Z,816.39
2022-08-17T00:12:58.521Z,816.41
2022-08-17T00:13:58.537Z,816.38
2022-08-17T00:14:58.557Z,816.41
2022-08-17T00:15:58.577Z,816.40
2022-08-17T00:16:58.603Z,816.40
2022-08-17T00:17:58.646Z,816.43
2022-08-17T00:19:07.834Z,816.38
2022-08-17T00:19:58.649Z,816.39
2022-08-17T00:20:58.679Z,816.36
2022-08-17T00:22:31.361Z,816.34
2022-08-17T00:22:58.707Z,816.35
2022-08-17T00:23:58.720Z,816.30
2022-08-17T00:24:58.739Z,816.26
2022-08-17T00:25:58.768Z,816.26
2022-08-17T00:26:58.771Z,816.21
2022-08-17T00:27:58.797Z,816.21
2022-08-17T00:28:58.816Z,816.19
2022-08-17T00:29:58.834Z,816.17
2022-08-17T00:30:58.851Z,816.10
2022-08-17T00:31:58.869Z,816.11
2022-08-17T00:33:14.210Z,816.10
2022-08-17T00:33:58.906Z,816.05
2022-08-17T00:34:58.922Z,815.97
2022-08-17T00:35:58.941Z,815.98
2022-08-17T00:36:58.957Z,816.00
2022-08-17T00:37:58.974Z,815.90
2022-08-17T00:38:59.073Z,815.95
2022-08-17T00:39:59.122Z,815.91
2022-08-17T00:40:59.461Z,815.94
2022-08-17T00:41:59.048Z,816.01
2022-08-17T00:42:59.061Z,816.03
2022-08-17T00:43:59.089Z,816.01
2022-08-17T00:44:59.109Z,816.04
2022-08-17T00:45:59.121Z,815.99
2022-08-17T00:46:59.140Z,816.01
2022-08-17T00:47:59.157Z,816.00
2022-08-17T00:48:59.173Z,816.00
2022-08-17T00:49:59.193Z,816.00
2022-08-17T00:50:59.221Z,816.04
2022-08-17T00:51:59.225Z,816.02
2022-08-17T00:52:59.247Z,816.04
2022-08-17T00:53:59.262Z,816.05
2022-08-17T00:54:59.310Z,816.02
2022-08-17T00:55:59.303Z,815.99
2022-08-17T00:56:59.320Z,815.98
2022-08-17T00:57:59.339Z,815.96
2022-08-17T00:58:59.355Z,816.02
2022-08-17T01:00:02.344Z,816.02
2022-08-17T01:00:59.610Z,816.01
2022-08-17T01:01:59.419Z,816.04
2022-08-17T01:02:59.425Z,816.03
2022-08-17T01:03:59.813Z,816.03
2022-08-17T01:04:59.467Z,816.10
2022-08-17T01:05:59.478Z,816.11
2022-08-17T01:06:59.501Z,816.14
2022-08-17T01:07:59.517Z,816.11
2022-08-17T01:08:59.533Z,816.10
2022-08-17T01:09:59.552Z,816.08
2022-08-17T01:11:01.821Z,816.08
2022-08-17T01:11:59.590Z,816.06
2022-08-17T01:12:59.602Z,816.04
2022-08-17T01:13:59.621Z,816.09
2022-08-17T01:14:59.638Z,816.08
2022-08-17T01:15:59.665Z,816.09
2022-08-17T01:16:59.676Z,816.11
2022-08-17T01:17:59.700Z,816.08
2022-08-17T01:18:59.718Z,816.09
2022-08-17T01:19:59.726Z,816.10
2022-08-17T01:20:59.745Z,816.11
2022-08-17T01:21:59.963Z,816.08
2022-08-17T01:22:59.786Z,816.06
2022-08-17T01:23:59.795Z,816.04
2022-08-17T01:24:59.821Z,816.03
2022-08-17T01:25:59.838Z,816.08
2022-08-17T01:26:59.851Z,816.06
2022-08-17T01:27:59.868Z,816.08
2022-08-17T01:28:59.885Z,816.05
2022-08-17T01:29:59.915Z,816.09
2022-08-17T01:31:00.022Z,816.08
2022-08-17T01:31:59.943Z,816.09
2022-08-17T01:32:59.958Z,816.07
2022-08-17T01:33:59.974Z,816.06
2022-08-17T01:34:59.994Z,816.06
2022-08-17T01:36:00.009Z,816.05
2022-08-17T01:37:00.033Z,816.02
2022-08-17T01:38:00.081Z,816.08
2022-08-17T01:39:00.102Z,816.07
2022-08-17T01:40:00.207Z,816.08
2022-08-17T01:41:00.110Z,816.12
2022-08-17T01:42:00.127Z,816.12
2022-08-17T01:43:00.139Z,816.16
2022-08-17T01:44:00.263Z,816.15
2022-08-17T01:45:00.186Z,816.16
2022-08-17T01:46:03.100Z,816.22
2022-08-17T01:47:00.209Z,816.22
2022-08-17T01:48:00.220Z,816.26
2022-08-17T01:49:00.241Z,816.34
2022-08-17T01:50:00.271Z,816.33
2022-08-17T01:51:00.284Z,816.35
2022-08-17T01:52:00.295Z,816.33
2022-08-17T01:53:00.317Z,816.37
2022-08-17T01:54:00.338Z,816.33
2022-08-17T01:55:00.349Z,816.35
2022-08-17T01:56:00.370Z,816.34
2022-08-17T01:57:00.383Z,816.35
2022-08-17T01:58:00.402Z,816.41
2022-08-17T01:59:00.419Z,816.41
2022-08-17T02:00:00.437Z,816.38
2022-08-17T02:01:01.660Z,816.38
2022-08-17T02:02:00.479Z,816.34
2022-08-17T02:03:00.490Z,816.33
2022-08-17T02:04:01.774Z,816.28
2022-08-17T02:05:00.522Z,816.25
2022-08-17T02:06:00.558Z,816.21
2022-08-17T02:07:00.561Z,816.22
2022-08-17T02:08:00.947Z,816.23
2022-08-17T02:09:02.435Z,816.24
2022-08-17T02:10:00.617Z,816.26
2022-08-17T02:11:00.630Z,816.27
2022-08-17T02:12:05.767Z,816.28
2022-08-17T02:13:00.669Z,816.26
2022-08-17T02:14:03.208Z,816.19
2022-08-17T02:15:00.707Z,816.15
2022-08-17T02:16:00.723Z,816.11
2022-08-17T02:17:00.738Z,816.08
2022-08-17T02:18:00.762Z,816.07
2022-08-17T02:19:00.774Z,816.10
2022-08-17T02:20:00.797Z,816.07
2022-08-17T02:21:00.813Z,816.09
2022-08-17T02:22:00.826Z,816.06
2022-08-17T02:23:00.847Z,816.09
2022-08-17T02:24:00.963Z,816.08
2022-08-17T02:25:02.352Z,816.07
2022-08-17T02:26:00.900Z,816.04
2022-08-17T02:27:00.914Z,815.98
2022-08-17T02:28:00.935Z,815.91
2022-08-17T02:29:00.958Z,815.86
2022-08-17T02:30:00.975Z,815.89
2022-08-17T02:31:03.213Z,815.87
2022-08-17T02:32:01.005Z,815.96
2022-08-17T02:33:01.022Z,816.02
2022-08-17T02:34:04.543Z,816.03
2022-08-17T02:35:01.057Z,816.04
2022-08-17T02:36:01.083Z,816.05
2022-08-17T02:37:01.094Z,816.03
2022-08-17T02:38:01.109Z,816.03
2022-08-17T02:39:01.129Z,816.03
2022-08-17T02:40:01.219Z,816.03
2022-08-17T02:41:01.161Z,816.09
2022-08-17T02:42:01.181Z,816.17
2022-08-17T02:43:01.199Z,816.18
2022-08-17T02:44:01.232Z,816.18
2022-08-17T02:45:01.234Z,816.18
2022-08-17T02:46:01.248Z,816.18
2022-08-17T02:47:01.268Z,816.18
2022-08-17T02:48:01.298Z,816.17
2022-08-17T02:49:01.301Z,816.12
2022-08-17T02:50:01.321Z,816.08
2022-08-17T02:51:01.337Z,816.05
2022-08-17T02:52:01.368Z,816.03
2022-08-17T02:53:02.880Z,816.04
2022-08-17T02:54:40.395Z,816.02
2022-08-17T02:55:01.408Z,816.05
2022-08-17T02:56:01.423Z,816.02
2022-08-17T02:57:01.450Z,815.98
2022-08-17T02:58:01.465Z,815.93
2022-08-17T02:59:01.485Z,815.91
2022-08-17T03:00:01.490Z,815.97
2022-08-17T03:01:01.514Z,815.93
2022-08-17T03:02:01.667Z,815.93
2022-08-17T03:03:01.565Z,815.91
2022-08-17T03:04:01.565Z,815.88
2022-08-17T03:05:01.586Z,815.85
2022-08-17T03:06:01.602Z,815.79
2022-08-17T03:07:01.627Z,815.67
2022-08-17T03:08:01.638Z,815.64
2022-08-17T03:09:01.650Z,815.60
2022-08-17T03:10:01.671Z,815.61
2022-08-17T03:11:01.701Z,815.60
2022-08-17T03:12:01.805Z,815.58
2022-08-17T03:13:01.722Z,815.53
2022-08-17T03:14:01.738Z,815.52
2022-08-17T03:15:01.767Z,815.42
2022-08-17T03:16:01.772Z,815.40
2022-08-17T03:17:01.789Z,815.40
2022-08-17T03:18:01.812Z,815.38
2022-08-17T03:19:01.832Z,815.35
2022-08-17T03:20:01.861Z,815.43
2022-08-17T03:21:01.862Z,815.43
2022-08-17T03:22:03.366Z,815.48
2022-08-17T03:23:03.141Z,815.41
2022-08-17T03:24:01.911Z,815.37
2022-08-17T03:25:01.926Z,815.34
2022-08-17T03:26:01.944Z,815.32
2022-08-17T03:27:01.961Z,815.26
2022-08-17T03:28:01.987Z,815.22
2022-08-17T03:29:01.999Z,815.17
2022-08-17T03:30:02.011Z,815.15
2022-08-17T03:31:02.032Z,815.10
2022-08-17T03:32:02.048Z,815.08
2022-08-17T03:33:02.063Z,815.14
2022-08-17T03:34:02.082Z,815.17
2022-08-17T03:35:02.100Z,815.17
2022-08-17T03:36:02.123Z,815.18
2022-08-17T03:37:02.136Z,815.16
2022-08-17T03:38:02.164Z,815.17
2022-08-17T03:39:02.177Z,815.18
2022-08-17T03:40:02.367Z,815.15
2022-08-17T03:41:02.214Z,815.17
2022-08-17T03:42:02.223Z,815.18
2022-08-17T03:43:02.235Z,815.21
2022-08-17T03:44:02.362Z,815.29
2022-08-17T03:45:02.271Z,815.30
2022-08-17T03:46:02.295Z,815.31
2022-08-17T03:47:02.314Z,815.42
2022-08-17T03:48:02.343Z,815.39
2022-08-17T03:49:02.348Z,815.37
2022-08-17T03:50:02.361Z,815.37
2022-08-17T03:51:02.374Z,815.35
2022-08-17T03:52:02.396Z,815.34
2022-08-17T03:53:02.415Z,815.34
2022-08-17T03:54:02.430Z,815.32
2022-08-17T03:55:02.443Z,815.36
2022-08-17T03:56:02.461Z,815.43
2022-08-17T03:57:02.478Z,815.47
2022-08-17T03:58:02.498Z,815.51
2022-08-17T03:59:02.611Z,815.48
2022-08-17T04:00:02.529Z,815.46
2022-08-17T04:01:02.606Z,815.49
2022-08-17T04:02:02.587Z,815.44
2022-08-17T04:03:02.582Z,815.44
2022-08-17T04:04:02.600Z,815.49
2022-08-17T04:05:02.630Z,815.45
2022-08-17T04:06:02.634Z,815.48
2022-08-17T04:07:02.646Z,815.45
2022-08-17T04:08:02.662Z,815.46
2022-08-17T04:09:02.685Z,815.49
2022-08-17T04:10:02.702Z,815.47
2022-08-17T04:11:02.719Z,815.51
2022-08-17T04:12:04.966Z,815.51
2022-08-17T04:13:02.750Z,815.50
2022-08-17T04:14:02.767Z,815.41
2022-08-17T04:15:02.790Z,815.40
2022-08-17T04:16:02.803Z,815.33
2022-08-17T04:17:02.820Z,815.33
2022-08-17T04:18:02.835Z,815.32
2022-08-17T04:19:02.856Z,815.31
2022-08-17T04:20:02.870Z,815.29
2022-08-17T04:21:02.986Z,815.26
2022-08-17T04:22:02.911Z,815.22
2022-08-17T04:23:02.921Z,815.19
2022-08-17T04:24:02.941Z,815.20
2022-08-17T04:25:02.962Z,815.22
2022-08-17T04:26:02.977Z,815.24
2022-08-17T04:27:02.993Z,815.23
2022-08-17T04:28:03.003Z,815.25
2022-08-17T04:29:03.023Z,815.23
2022-08-17T04:30:03.048Z,815.21
2022-08-17T04:31:03.060Z,815.20
2022-08-17T04:32:03.071Z,815.20
2022-08-17T04:33:06.329Z,815.18
2022-08-17T04:34:03.108Z,815.21
2022-08-17T04:35:03.126Z,815.20
2022-08-17T04:36:03.136Z,815.27
2022-08-17T04:37:03.155Z,815.31
2022-08-17T04:38:03.219Z,815.38
2022-08-17T04:39:03.191Z,815.36
2022-08-17T04:40:04.333Z,815.33
2022-08-17T04:41:03.233Z,815.33
2022-08-17T04:42:03.243Z,815.32
2022-08-17T04:43:03.260Z,815.36
2022-08-17T04:44:03.279Z,815.34
2022-08-17T04:45:03.292Z,815.35
2022-08-17T04:46:03.308Z,815.42
2022-08-17T04:47:03.322Z,815.48
2022-08-17T04:48:03.340Z,815.56
2022-08-17T04:49:03.360Z,815.63
2022-08-17T04:50:03.380Z,815.66
2022-08-17T04:51:03.390Z,815.76
2022-08-17T04:52:04.652Z,815.75
2022-08-17T04:53:03.428Z,815.76
2022-08-17T04:54:03.440Z,815.75
2022-08-17T04:55:03.461Z,815.71
2022-08-17T04:56:03.479Z,815.73
2022-08-17T04:57:03.491Z,815.71
2022-08-17T04:58:03.510Z,815.69
2022-08-17T04:59:03.526Z,815.68
2022-08-17T05:00:03.548Z,815.71
2022-08-17T05:01:03.646Z,815.73
2022-08-17T05:02:03.580Z,815.74
2022-08-17T05:03:03.597Z,815.74
2022-08-17T05:04:32.181Z,815.76
2022-08-17T05:05:03.631Z,815.74
2022-08-17T05:06:03.646Z,815.70
2022-08-17T05:07:03.663Z,815.64
2022-08-17T05:08:03.677Z,815.66
2022-08-17T05:09:03.694Z,815.67
2022-08-17T05:10:03.714Z,815.71
2022-08-17T05:11:03.727Z,815.71
2022-08-17T05:12:03.743Z,815.71
2022-08-17T05:13:03.758Z,815.71
2022-08-17T05:14:03.778Z,815.74
2022-08-17T05:15:03.791Z,815.72
2022-08-17T05:16:03.810Z,815.75
2022-08-17T05:17:07.438Z,815.79
2022-08-17T05:18:03.841Z,815.81
2022-08-17T05:19:03.872Z,815.87
2022-08-17T05:20:03.888Z,815.94
2022-08-17T05:21:03.893Z,815.92
2022-08-17T05:22:03.909Z,815.94
2022-08-17T05:23:03.923Z,815.93
2022-08-17T05:24:09.663Z,815.88
2022-08-17T05:25:03.960Z,815.90
2022-08-17T05:26:03.980Z,815.90
2022-08-17T05:27:04.290Z,815.94
2022-08-17T05:28:04.010Z,815.99
2022-08-17T05:29:04.029Z,816.04
2022-08-17T05:30:04.145Z,816.05
2022-08-17T05:31:04.074Z,816.01
2022-08-17T05:32:04.076Z,815.94
2022-08-17T05:33:04.096Z,815.93
2022-08-17T05:34:04.118Z,815.92
2022-08-17T05:35:04.127Z,815.91
2022-08-17T05:36:04.148Z,815.88
2022-08-17T05:37:04.167Z,815.86
2022-08-17T05:38:04.179Z,815.90
2022-08-17T05:39:04.198Z,815.93
2022-08-17T05:40:04.296Z,815.96
2022-08-17T05:41:04.238Z,815.97
2022-08-17T05:42:04.246Z,815.96
2022-08-17T05:43:04.266Z,815.87
2022-08-17T05:44:05.308Z,815.84
2022-08-17T05:45:04.297Z,815.82
2022-08-17T05:46:04.314Z,815.81
2022-08-17T05:47:04.330Z,815.84
2022-08-17T05:48:04.347Z,815.83
2022-08-17T05:49:04.368Z,815.82
2022-08-17T05:50:09.517Z,815.80
2022-08-17T05:51:04.401Z,815.77
2022-08-17T05:52:04.418Z,815.77
2022-08-17T05:53:04.431Z,815.76
2022-08-17T05:54:04.458Z,815.75
2022-08-17T05:55:04.467Z,815.73
2022-08-17T05:56:04.503Z,815.72
2022-08-17T05:57:04.498Z,815.72
2022-08-17T05:58:04.513Z,815.78
2022-08-17T05:59:04.542Z,815.79
2022-08-17T06:00:04.549Z,815.82
2022-08-17T06:01:04.665Z,815.82
2022-08-17T06:02:04.584Z,815.83
2022-08-17T06:03:04.603Z,815.89
2022-08-17T06:04:04.617Z,815.89
2022-08-17T06:05:04.637Z,815.86
2022-08-17T06:06:04.649Z,815.87
2022-08-17T06:07:04.669Z,815.89
2022-08-17T06:08:04.682Z,815.83
2022-08-17T06:09:04.705Z,815.83
2022-08-17T06:10:04.721Z,815.83
2022-08-17T06:11:04.739Z,815.83
2022-08-17T06:12:04.752Z,815.91
2022-08-17T06:13:04.872Z,815.91
2022-08-17T06:14:04.791Z,815.97
2022-08-17T06:15:04.802Z,816.05
2022-08-17T06:16:04.822Z,816.09
2022-08-17T06:17:04.836Z,816.11
2022-08-17T06:18:04.853Z,816.07
2022-08-17T06:19:04.874Z,816.05
2022-08-17T06:20:04.966Z,816.00
2022-08-17T06:21:04.904Z,816.02
2022-08-17T06:22:04.922Z,815.99
2022-08-17T06:23:04.937Z,816.07
2022-08-17T06:24:04.970Z,816.03
2022-08-17T06:25:04.977Z,816.03
2022-08-17T06:26:05.006Z,816.04
2022-08-17T06:27:05.004Z,816.03
2022-08-17T06:28:05.026Z,816.02
2022-08-17T06:29:05.039Z,816.06
2022-08-17T06:30:05.060Z,816.04
2022-08-17T06:31:05.073Z,816.07
2022-08-17T06:32:05.192Z,815.98
2022-08-17T06:33:05.108Z,815.91
2022-08-17T06:34:05.124Z,815.93
2022-08-17T06:35:05.140Z,815.90
2022-08-17T06:36:09.477Z,815.91
2022-08-17T06:37:05.173Z,815.90
2022-08-17T06:38:05.194Z,815.91
2022-08-17T06:39:05.221Z,815.91
2022-08-17T06:40:05.371Z,815.92
2022-08-17T06:41:05.248Z,815.95
2022-08-17T06:42:05.265Z,815.98
2022-08-17T06:43:07.216Z,816.01
2022-08-17T06:44:05.297Z,815.99
2022-08-17T06:45:05.317Z,816.02
2022-08-17T06:46:05.328Z,816.09
2022-08-17T06:47:05.347Z,816.02
2022-08-17T06:48:05.367Z,816.07
2022-08-17T06:49:05.382Z,816.05
2022-08-17T06:50:05.399Z,816.04
2022-08-17T06:51:05.414Z,816.00
2022-08-17T06:52:05.432Z,815.98
2022-08-17T06:53:05.453Z,815.91
2022-08-17T06:54:05.491Z,815.82
2022-08-17T06:55:05.488Z,815.82
2022-08-17T06:56:05.498Z,815.80
2022-08-17T06:57:05.618Z,815.88
2022-08-17T06:58:05.534Z,815.87
2022-08-17T06:59:05.559Z,815.88
2022-08-17T07:00:05.571Z,815.92
2022-08-17T07:01:05.634Z,815.82
2022-08-17T07:02:05.635Z,815.74
2022-08-17T07:03:05.989Z,815.69
2022-08-17T07:04:11.604Z,815.68
2022-08-17T07:05:05.656Z,815.69
2022-08-17T07:06:05.670Z,815.73
2022-08-17T07:07:05.691Z,815.75
2022-08-17T07:08:05.709Z,815.79
2022-08-17T07:09:05.723Z,815.80
2022-08-17T07:10:05.745Z,815.73
2022-08-17T07:11:05.759Z,815.76
2022-08-17T07:12:05.777Z,815.78
2022-08-17T07:13:05.795Z,815.81
2022-08-17T07:14:05.815Z,815.83
2022-08-17T07:15:05.827Z,815.90
2022-08-17T07:16:05.847Z,815.86
2022-08-17T07:17:05.861Z,815.85
2022-08-17T07:18:05.882Z,815.78
2022-08-17T07:19:05.905Z,815.74
2022-08-17T07:20:05.912Z,815.67
2022-08-17T07:21:05.932Z,815.59
2022-08-17T07:22:05.951Z,815.62
2022-08-17T07:23:05.967Z,815.63
2022-08-17T07:24:05.981Z,815.68
2022-08-17T07:25:06.014Z,815.63
2022-08-17T07:26:06.023Z,815.61
2022-08-17T07:27:06.034Z,815.65
2022-08-17T07:28:07.331Z,815.68
2022-08-17T07:29:06.070Z,815.62
2022-08-17T07:30:10.265Z,815.62
2022-08-17T07:31:06.104Z,815.57
2022-08-17T07:32:06.124Z,815.52
2022-08-17T07:33:06.138Z,815.53
2022-08-17T07:34:06.157Z,815.62
2022-08-17T07:35:06.169Z,815.66
2022-08-17T07:36:06.190Z,815.68
2022-08-17T07:37:06.207Z,815.70
2022-08-17T07:38:06.226Z,815.71
2022-08-17T07:39:06.376Z,815.67
2022-08-17T07:40:16.086Z,815.64
2022-08-17T07:41:06.287Z,815.67
2022-08-17T07:42:06.294Z,815.74
2022-08-17T07:43:06.312Z,815.78
2022-08-17T07:44:06.384Z,815.78
2022-08-17T07:45:06.347Z,815.82
2022-08-17T07:46:06.363Z,815.84
2022-08-17T07:47:06.383Z,815.85
2022-08-17T07:48:06.397Z,815.83
2022-08-17T07:49:06.415Z,815.84
2022-08-17T07:50:06.433Z,815.85
2022-08-17T07:51:06.450Z,815.81
2022-08-17T07:52:24.120Z,815.85
2022-08-17T07:53:06.487Z,815.84
2022-08-17T07:54:14.488Z,815.81
2022-08-17T07:55:06.523Z,815.72
2022-08-17T07:56:06.547Z,815.78
2022-08-17T07:57:06.555Z,815.79
2022-08-17T07:58:06.572Z,815.87
2022-08-17T07:59:06.595Z,815.95
2022-08-17T08:00:06.613Z,816.02
2022-08-17T08:01:06.635Z,816.06
2022-08-17T08:02:06.735Z,816.13
2022-08-17T08:03:06.666Z,816.13
2022-08-17T08:04:06.679Z,816.15
2022-08-17T08:05:08.895Z,816.20
2022-08-17T08:06:06.712Z,816.19
2022-08-17T08:07:06.731Z,816.23
2022-08-17T08:08:06.753Z,816.29
2022-08-17T08:09:06.771Z,816.24
2022-08-17T08:10:06.799Z,816.27
2022-08-17T08:11:06.801Z,816.30
2022-08-17T08:12:06.818Z,816.32
2022-08-17T08:13:06.839Z,816.37
2022-08-17T08:14:06.861Z,816.38
2022-08-17T08:15:06.877Z,816.44
2022-08-17T08:16:06.899Z,816.45
2022-08-17T08:17:06.934Z,816.46
2022-08-17T08:18:06.930Z,816.48
2022-08-17T08:19:06.948Z,816.47
2022-08-17T08:20:19.723Z,816.46
2022-08-17T08:21:06.984Z,816.46
2022-08-17T08:22:07.003Z,816.42
2022-08-17T08:23:07.022Z,816.46
2022-08-17T08:24:07.048Z,816.49
2022-08-17T08:25:07.071Z,816.49
2022-08-17T08:26:07.081Z,816.52
2022-08-17T08:27:07.108Z,816.52
2022-08-17T08:28:07.236Z,816.56
2022-08-17T08:29:07.140Z,816.52
2022-08-17T08:30:07.151Z,816.54
2022-08-17T08:31:07.172Z,816.45
2022-08-17T08:32:07.194Z,816.46
2022-08-17T08:33:07.210Z,816.44
2022-08-17T08:34:07.228Z,816.53
2022-08-17T08:35:07.251Z,816.49
2022-08-17T08:36:07.262Z,816.51
2022-08-17T08:37:16.575Z,816.54
2022-08-17T08:38:07.301Z,816.49
2022-08-17T08:39:07.325Z,816.50
2022-08-17T08:40:07.427Z,816.50
2022-08-17T08:41:07.361Z,816.43
2022-08-17T08:42:07.381Z,816.41
2022-08-17T08:43:07.397Z,816.47
2022-08-17T08:44:07.415Z,816.41
2022-08-17T08:45:07.432Z,816.47
2022-08-17T08:46:07.453Z,816.43
2022-08-17T08:47:07.469Z,816.42
2022-08-17T08:48:12.724Z,816.43
2022-08-17T08:49:12.188Z,816.45
2022-08-17T08:50:07.529Z,816.41
2022-08-17T08:51:07.652Z,816.45
2022-08-17T08:52:07.585Z,816.42
2022-08-17T08:53:07.586Z,816.39
2022-08-17T08:54:07.607Z,816.41
2022-08-17T08:55:07.629Z,816.45
2022-08-17T08:56:07.642Z,816.39
2022-08-17T08:57:29.011Z,816.38
2022-08-17T08:58:07.690Z,816.38
2022-08-17T08:59:07.697Z,816.38
2022-08-17T09:00:07.722Z,816.37
2022-08-17T09:01:07.804Z,816.43
2022-08-17T09:02:07.755Z,816.31
2022-08-17T09:03:07.772Z,816.32
2022-08-17T09:04:23.398Z,816.36
2022-08-17T09:05:14.331Z,816.36
2022-08-17T09:06:37.729Z,816.38
2022-08-17T09:07:07.855Z,816.47
2022-08-17T09:08:07.876Z,816.41
2022-08-17T09:09:07.892Z,816.48
2022-08-17T09:10:07.911Z,816.57
2022-08-17T09:11:07.930Z,816.54
2022-08-17T09:12:07.947Z,816.48
2022-08-17T09:13:10.245Z,816.48
2022-08-17T09:14:21.296Z,816.48
2022-08-17T09:15:12.745Z,816.48
2022-08-17T09:16:08.026Z,816.49
2022-08-17T09:17:08.046Z,816.51
2022-08-17T09:19:00.092Z,816.49
2022-08-17T09:19:08.096Z,816.53
2022-08-17T09:20:08.107Z,816.49
2022-08-17T09:21:08.122Z,816.51
2022-08-17T09:22:08.172Z,816.53
2022-08-17T09:23:08.164Z,816.56
2022-08-17T09:24:08.182Z,816.55
2022-08-17T09:25:08.207Z,816.56
2022-08-17T09:26:08.226Z,816.60
2022-08-17T09:27:08.242Z,816.59
2022-08-17T09:28:08.260Z,816.57
2022-08-17T09:29:08.283Z,816.56
2022-08-17T09:30:08.301Z,816.57
2022-08-17T09:31:08.322Z,816.52
2022-08-17T09:32:08.339Z,816.54
2022-08-17T09:33:08.459Z,816.52
2022-08-17T09:34:08.380Z,816.58
2022-08-17T09:35:08.404Z,816.56
2022-08-17T09:36:08.419Z,816.61
2022-08-17T09:37:08.440Z,816.65
2022-08-17T09:38:08.465Z,816.64
2022-08-17T09:39:08.493Z,816.60
2022-08-17T09:40:08.655Z,816.63
2022-08-17T09:41:08.518Z,816.62
2022-08-17T09:42:08.550Z,816.57
2022-08-17T09:43:08.660Z,816.59
2022-08-17T09:44:22.690Z,816.56
2022-08-17T09:45:08.599Z,816.55
2022-08-17T09:46:08.619Z,816.61
2022-08-17T09:47:08.640Z,816.64
2022-08-17T09:48:08.657Z,816.68
2022-08-17T09:49:08.686Z,816.70
2022-08-17T09:50:08.702Z,816.69
2022-08-17T09:51:08.728Z,816.68
2022-08-17T09:52:08.739Z,816.64
2022-08-17T09:53:08.760Z,816.68
2022-08-17T09:54:37.078Z,816.71
2022-08-17T09:55:08.802Z,816.71
2022-08-17T09:56:08.823Z,816.71
2022-08-17T09:57:28.686Z,816.73
2022-08-17T09:58:08.863Z,816.75
2022-08-17T09:59:08.878Z,816.77
2022-08-17T10:00:08.897Z,816.76
2022-08-17T10:01:08.967Z,816.70
2022-08-17T10:02:08.938Z,816.72
2022-08-17T10:03:08.969Z,816.69
2022-08-17T10:04:08.981Z,816.64
2022-08-17T10:05:09.000Z,816.63
2022-08-17T10:06:09.110Z,816.61
2022-08-17T10:07:09.042Z,816.57
2022-08-17T10:08:09.062Z,816.56
2022-08-17T10:09:09.082Z,816.55
2022-08-17T10:10:13.924Z,816.56
2022-08-17T10:11:09.125Z,816.55
2022-08-17T10:12:09.278Z,816.54
2022-08-17T10:13:09.698Z,816.52
2022-08-17T10:14:36.249Z,816.55
2022-08-17T10:15:09.568Z,816.57
2022-08-17T10:16:09.221Z,816.55
2022-08-17T10:17:09.248Z,816.57
2022-08-17T10:18:09.265Z,816.54
2022-08-17T10:19:09.384Z,816.54
2022-08-17T10:20:09.310Z,816.54
2022-08-17T10:21:09.329Z,816.56
2022-08-17T10:22:14.727Z,816.54
2022-08-17T10:23:09.364Z,816.55
2022-08-17T10:24:09.396Z,816.55
2022-08-17T10:25:22.524Z,816.53
2022-08-17T10:26:09.426Z,816.53
2022-08-17T10:27:09.455Z,816.60
2022-08-17T10:28:14.255Z,816.58
2022-08-17T10:29:09.505Z,816.56
2022-08-17T10:30:09.517Z,816.59
2022-08-17T10:32:09.550Z,816.65
2022-08-17T10:33:09.572Z,816.56
2022-08-17T10:34:09.589Z,816.59
2022-08-17T10:35:09.608Z,816.51
2022-08-17T10:36:10.914Z,816.47
2022-08-17T10:37:09.653Z,816.50
2022-08-17T10:38:09.673Z,816.51
2022-08-17T10:39:09.704Z,816.55
2022-08-17T10:40:09.802Z,816.55
2022-08-17T10:41:09.735Z,816.50
2022-08-17T10:42:09.759Z,816.48
2022-08-17T10:43:09.774Z,816.44
2022-08-17T10:44:38.902Z,816.41
2022-08-17T10:45:09.816Z,816.33
2022-08-17T10:46:27.722Z,816.31
2022-08-17T10:47:09.869Z,816.31
2022-08-17T10:48:10.240Z,816.27
2022-08-17T10:49:09.908Z,816.35
2022-08-17T10:50:09.930Z,816.29
2022-08-17T10:51:09.953Z,816.31
2022-08-17T10:52:09.968Z,816.28
2022-08-17T10:53:10.090Z,816.19
2022-08-17T10:54:10.013Z,816.21
2022-08-17T10:55:10.036Z,816.19
2022-08-17T10:56:10.056Z,816.19
2022-08-17T10:57:10.072Z,816.22
2022-08-17T10:58:10.099Z,816.20
2022-08-17T10:59:10.117Z,816.23
2022-08-17T11:00:10.140Z,816.11
2022-08-17T11:01:10.201Z,816.10
2022-08-17T11:02:10.188Z,816.00
2022-08-17T11:03:10.210Z,816.04
2022-08-17T11:04:10.225Z,816.03
2022-08-17T11:05:10.261Z,816.05
2022-08-17T11:06:10.275Z,816.04
2022-08-17T11:07:10.307Z,816.04
2022-08-17T11:08:10.423Z,816.10
2022-08-17T11:09:10.353Z,816.06
2022-08-17T11:10:10.360Z,816.09
2022-08-17T11:11:10.380Z,816.03
2022-08-17T11:12:10.402Z,816.04
2022-08-17T11:13:10.431Z,816.07
2022-08-17T11:14:10.451Z,816.07
2022-08-17T11:15:10.471Z,816.07
2022-08-17T11:16:10.494Z,816.01
2022-08-17T11:17:10.534Z,815.99
2022-08-17T11:18:10.545Z,816.00
2022-08-17T11:19:10.561Z,816.01
2022-08-17T11:20:10.660Z,815.98
2022-08-17T11:21:10.607Z,815.91
2022-08-17T11:22:10.629Z,815.95
2022-08-17T11:23:10.649Z,815.95
2022-08-17T11:24:10.679Z,815.96
2022-08-17T11:25:10.694Z,815.93
2022-08-17T11:26:10.723Z,815.88
2022-08-17T11:27:12.055Z,815.88
2022-08-17T11:28:10.760Z,815.98
2022-08-17T11:29:10.789Z,816.00
2022-08-17T11:30:10.903Z,816.02
2022-08-17T11:31:10.831Z,816.00
2022-08-17T11:32:11.191Z,816.03
2022-08-17T11:33:10.876Z,816.01
2022-08-17T11:34:10.891Z,815.97
2022-08-17T11:35:10.927Z,815.98
2022-08-17T11:36:10.946Z,816.01
2022-08-17T11:37:10.963Z,815.98
2022-08-17T11:38:15.040Z,816.03
2022-08-17T11:39:11.756Z,815.97
2022-08-17T11:40:11.196Z,816.06
2022-08-17T11:41:11.047Z,816.10
2022-08-17T11:42:11.073Z,816.15
2022-08-17T11:43:11.091Z,816.13
2022-08-17T11:44:11.224Z,816.12
2022-08-17T11:45:14.007Z,816.11
2022-08-17T11:46:11.163Z,816.15
2022-08-17T11:47:11.187Z,816.09
2022-08-17T11:48:27.232Z,816.12
2022-08-17T11:49:11.233Z,816.14
2022-08-17T11:50:11.256Z,816.15
2022-08-17T11:51:11.270Z,816.17
2022-08-17T11:52:11.350Z,816.19
2022-08-17T11:53:11.313Z,816.15
2022-08-17T11:55:33.994Z,816.21
2022-08-17T11:56:11.378Z,816.19
2022-08-17T11:57:11.400Z,816.18
2022-08-17T11:58:11.423Z,816.17
2022-08-17T11:59:11.444Z,816.15
2022-08-17T12:00:11.472Z,816.08
2022-08-17T12:01:12.339Z,816.10
2022-08-17T12:02:11.516Z,816.07
2022-08-17T12:03:11.648Z,816.01
2022-08-17T12:04:11.584Z,815.99
2022-08-17T12:05:12.124Z,815.94
2022-08-17T12:06:11.597Z,815.89
2022-08-17T12:07:11.616Z,815.82
2022-08-17T12:08:11.648Z,815.86
2022-08-17T12:09:11.667Z,815.85
2022-08-17T12:10:11.689Z,815.84
2022-08-17T12:11:11.711Z,815.82
2022-08-17T12:12:14.050Z,815.84
2022-08-17T12:13:11.754Z,815.81
2022-08-17T12:14:17.777Z,815.81
2022-08-17T12:15:12.393Z,815.78
2022-08-17T12:16:11.824Z,815.74
2022-08-17T12:17:11.841Z,815.75
2022-08-17T12:18:11.859Z,815.74
2022-08-17T12:19:11.885Z,815.75
2022-08-17T12:20:11.924Z,815.78
2022-08-17T12:21:11.925Z,815.78
2022-08-17T12:22:11.948Z,815.83
2022-08-17T12:23:12.074Z,815.86
2022-08-17T12:24:11.992Z,815.88
2022-08-17T12:25:12.012Z,815.87
2022-08-17T12:26:12.037Z,815.86
2022-08-17T12:27:12.063Z,815.83
2022-08-17T12:28:13.897Z,815.85
2022-08-17T12:29:18.484Z,815.86
2022-08-17T12:30:12.129Z,815.84
2022-08-17T12:31:12.145Z,815.88